KAFJ

Washington County Airport

Washington, Pennsylvania, USA
METAR KAFJ 180156Z AUTO 00000KT 10SM FEW090 OVC120 19/19 A3003 RMK AO2 SLP162 T01940189
Observed Flight Rules
Aug-18 @ 01:56 UTC (31 minutes ago) Visual Flight Rules
Visibility Clouds
10 miles
  • Few at 9,000' AGL
  • Overcast at 12,000' AGL
Temperatures Readings
Current 19°C / 66°F
Dewpoint 19°C / 66°F
Humidity 100%
Altimeter 30.03" Hg
Pressure 1016.2 hPa
Elevation 361
METAR KAFJ 180156Z AUTO 00000KT 10SM FEW090 OVC120 19/19 A3003 RMK AO2 SLP162 T01940189
Observed Flight Rules
Aug-18 @ 01:56 UTC
(31 minutes ago)
VFR
Clouds
  • Few at 9,000' AGL
  • Overcast at 12,000' AGL
Temperature Dewpoint
19°C / 66°F 19°C / 66°F
Humidity Altimeter Pressure
100% 30.03" Hg 1016.2 hPa